createdAt,value
2019-04-22T00:00:25.821Z,35.50
2019-04-22T00:02:55.807Z,36.00
2019-04-22T00:05:42.851Z,37.00
2019-04-22T00:08:17.757Z,36.60
2019-04-22T00:10:48.035Z,36.90
2019-04-22T00:13:21.887Z,37.10
2019-04-22T00:15:44.038Z,37.10
2019-04-22T00:18:22.379Z,37.80
2019-04-22T00:20:51.806Z,37.30
2019-04-22T00:23:19.880Z,38.10
2019-04-22T00:25:57.238Z,38.80
2019-04-22T00:28:23.237Z,39.70
2019-04-22T00:30:47.082Z,39.80
2019-04-22T00:33:20.407Z,39.80
2019-04-22T00:35:48.134Z,39.70
2019-04-22T00:38:28.400Z,39.80
2019-04-22T00:40:57.613Z,39.70
2019-04-22T00:43:30.500Z,39.70
2019-04-22T00:45:59.058Z,39.90
2019-04-22T00:48:30.867Z,40.30
2019-04-22T00:51:01.363Z,40.10
2019-04-22T00:53:30.178Z,40.10
2019-04-22T00:56:11.297Z,40.20
2019-04-22T00:58:41.163Z,40.10
2019-04-22T01:01:14.297Z,40.10
2019-04-22T01:06:12.018Z,40.60
2019-04-22T01:08:46.884Z,40.60
2019-04-22T01:11:19.077Z,40.20
2019-04-22T01:13:42.476Z,40.90
2019-04-22T01:16:17.723Z,41.10
2019-04-22T01:18:42.384Z,41.40
2019-04-22T01:23:44.470Z,41.30
2019-04-22T01:26:09.935Z,40.90
2019-04-22T01:28:39.915Z,40.60
2019-04-22T01:31:05.002Z,40.70
2019-04-22T01:33:35.357Z,40.60
2019-04-22T01:36:23.233Z,40.30
2019-04-22T01:38:51.681Z,40.20
2019-04-22T01:41:35.317Z,40.20
2019-04-22T01:46:29.980Z,40.30
2019-04-22T01:48:55.393Z,40.10
2019-04-22T01:51:35.522Z,41.10
2019-04-22T01:54:07.165Z,42.20
2019-04-22T01:56:27.277Z,43.40
2019-04-22T01:58:50.348Z,43.60
2019-04-22T02:01:30.907Z,44.00
2019-04-22T02:04:00.922Z,44.30
2019-04-22T02:06:35.105Z,43.00
2019-04-22T02:09:09.406Z,43.40
2019-04-22T02:11:33.242Z,43.00
2019-04-22T02:19:45.544Z,43.50
2019-04-22T02:22:17.634Z,43.40
2019-04-22T02:24:46.824Z,43.30
2019-04-22T02:27:24.047Z,43.40
2019-04-22T02:32:28.071Z,44.20
2019-04-22T02:34:58.651Z,45.20
2019-04-22T02:37:18.818Z,45.80
2019-04-22T02:42:13.842Z,44.70
2019-04-22T02:44:58.567Z,45.70
2019-04-22T02:47:20.877Z,46.20
2019-04-22T02:49:53.426Z,47.10
2019-04-22T02:52:26.313Z,46.60
2019-04-22T02:54:55.165Z,46.00
2019-04-22T02:57:33.761Z,46.00
2019-04-22T03:00:02.993Z,45.70
2019-04-22T03:02:35.713Z,46.10
2019-04-22T03:04:57.973Z,46.50
2019-04-22T03:07:26.018Z,47.10
2019-04-22T03:09:52.636Z,46.60
2019-04-22T03:12:25.200Z,46.10
2019-04-22T03:17:37.216Z,45.40
2019-04-22T03:20:02.653Z,45.70
2019-04-22T03:22:22.779Z,44.80
2019-04-22T03:25:24.132Z,45.20
2019-04-22T03:37:48.856Z,44.90
2019-04-22T03:42:52.274Z,45.40
2019-04-22T03:47:48.039Z,44.60
2019-04-22T03:50:31.376Z,44.70
2019-04-22T03:52:39.051Z,44.40
2019-04-22T04:02:45.736Z,44.80
2019-04-22T04:05:26.354Z,44.70
2019-04-22T04:15:21.102Z,48.10
2019-04-22T04:25:32.136Z,45.20
2019-04-22T04:30:29.960Z,45.60
2019-04-22T04:32:52.701Z,45.80
2019-04-22T04:35:44.570Z,46.10
2019-04-22T04:37:52.189Z,47.00
2019-04-22T04:48:09.622Z,46.00
2019-04-22T04:50:31.267Z,45.60
2019-04-22T04:53:06.192Z,45.90
2019-04-22T04:58:10.042Z,46.20
2019-04-22T05:00:43.290Z,46.40
2019-04-22T05:02:58.471Z,46.60
2019-04-22T05:07:56.596Z,46.60
2019-04-22T05:10:41.128Z,46.70
2019-04-22T05:12:56.888Z,47.30
2019-04-22T05:17:57.788Z,47.90
2019-04-22T05:20:43.075Z,47.70
2019-04-22T05:22:51.386Z,47.60
2019-04-22T05:25:22.203Z,47.60
2019-04-22T05:27:52.235Z,47.60
2019-04-22T05:35:26.278Z,48.80
2019-04-22T05:37:58.074Z,48.80
2019-04-22T05:40:23.012Z,48.50
2019-04-22T05:42:56.054Z,48.40
2019-04-22T05:50:44.218Z,48.00
2019-04-22T05:56:10.088Z,48.80
2019-04-22T05:58:38.079Z,49.10
2019-04-22T06:03:46.557Z,49.90
2019-04-22T06:06:08.993Z,51.10
2019-04-22T06:08:42.458Z,50.50
2019-04-22T06:11:17.131Z,50.40
2019-04-22T06:13:38.836Z,50.10
2019-04-22T06:16:09.431Z,50.00
2019-04-22T06:18:38.542Z,49.10
2019-04-22T06:21:20.241Z,49.70
2019-04-22T06:23:46.679Z,49.50
2019-04-22T06:26:35.746Z,48.60
2019-04-22T06:28:48.217Z,48.00
2019-04-22T06:31:16.130Z,48.10
2019-04-22T06:33:48.501Z,47.50
2019-04-22T06:36:17.991Z,46.80
2019-04-22T06:38:46.739Z,46.50
2019-04-22T06:41:42.022Z,46.10
2019-04-22T06:44:10.866Z,45.80
2019-04-22T06:46:39.636Z,46.70
2019-04-22T06:49:09.619Z,46.70
2019-04-22T06:51:40.194Z,47.30
2019-04-22T06:54:07.305Z,47.20
2019-04-22T06:56:44.331Z,47.30
2019-04-22T06:59:11.918Z,48.10
2019-04-22T07:02:04.556Z,48.10
2019-04-22T07:04:09.255Z,47.60
2019-04-22T07:11:36.704Z,48.30
2019-04-22T07:14:12.230Z,47.90
2019-04-22T07:16:43.557Z,47.70
2019-04-22T07:19:13.612Z,47.70
2019-04-22T07:21:44.103Z,48.20
2019-04-22T07:24:28.217Z,48.70
2019-04-22T07:26:48.782Z,48.20
2019-04-22T07:29:17.188Z,48.10
2019-04-22T07:31:49.546Z,49.00
2019-04-22T07:34:19.694Z,48.80
2019-04-22T07:37:12.506Z,49.10
2019-04-22T07:39:15.708Z,48.00
2019-04-22T07:41:47.577Z,48.30
2019-04-22T07:44:22.079Z,47.90
2019-04-22T07:49:18.247Z,48.30
2019-04-22T07:52:03.688Z,48.80
2019-04-22T07:54:22.166Z,48.80
2019-04-22T07:56:50.684Z,49.00
2019-04-22T07:59:22.266Z,48.90
2019-04-22T08:01:53.798Z,49.10
2019-04-22T08:06:51.979Z,49.80
2019-04-22T08:14:26.823Z,49.60
2019-04-22T08:17:05.851Z,49.10
2019-04-22T08:19:33.454Z,49.80
2019-04-22T08:21:57.003Z,49.10
2019-04-22T08:24:22.824Z,48.20
2019-04-22T08:26:54.702Z,48.20
2019-04-22T08:29:25.420Z,48.20
2019-04-22T08:31:56.610Z,47.40
2019-04-22T08:34:24.567Z,47.60
2019-04-22T08:37:26.198Z,48.50
2019-04-22T08:39:25.213Z,49.10
2019-04-22T08:41:53.109Z,49.80
2019-04-22T08:44:39.023Z,49.70
2019-04-22T08:47:04.358Z,49.10
2019-04-22T08:49:34.438Z,48.30
2019-04-22T08:52:02.444Z,48.10
2019-04-22T08:54:29.751Z,48.50
2019-04-22T08:57:06.691Z,48.50
2019-04-22T08:59:33.658Z,49.10
2019-04-22T09:02:06.392Z,49.40
2019-04-22T09:04:31.185Z,48.40
2019-04-22T09:07:12.373Z,47.70
2019-04-22T09:09:34.561Z,46.80
2019-04-22T09:14:40.602Z,48.50
2019-04-22T09:17:04.104Z,48.50
2019-04-22T09:19:38.551Z,48.60
2019-04-22T09:22:09.705Z,47.30
2019-04-22T09:24:38.718Z,47.90
2019-04-22T09:27:10.093Z,48.00
2019-04-22T09:29:40.044Z,47.70
2019-04-22T09:34:41.282Z,47.50
2019-04-22T09:37:18.102Z,47.60
2019-04-22T09:39:41.360Z,46.80
2019-04-22T09:42:26.810Z,46.60
2019-04-22T09:44:40.353Z,46.80
2019-04-22T09:47:08.018Z,47.10
2019-04-22T09:49:44.589Z,47.80
2019-04-22T09:52:10.167Z,47.10
2019-04-22T09:54:49.515Z,46.40
2019-04-22T09:57:09.226Z,46.30
2019-04-22T09:59:52.051Z,45.30
2019-04-22T10:02:26.752Z,45.00
2019-04-22T10:04:50.345Z,45.20
2019-04-22T10:07:20.925Z,44.30
2019-04-22T10:12:19.264Z,44.30
2019-04-22T10:14:49.260Z,45.30
2019-04-22T10:17:17.328Z,43.70
2019-04-22T10:19:49.432Z,43.80
2019-04-22T10:24:52.812Z,43.30
2019-04-22T10:27:24.339Z,43.00
2019-04-22T10:29:54.076Z,43.10
2019-04-22T10:32:17.592Z,42.20
2019-04-22T10:34:37.969Z,42.40
2019-04-22T10:37:02.786Z,42.20
2019-04-22T10:39:39.914Z,41.80
2019-04-22T10:41:59.964Z,41.50
2019-04-22T10:44:28.913Z,41.90
2019-04-22T10:46:58.113Z,40.70
2019-04-22T10:49:26.863Z,41.20
2019-04-22T10:51:55.522Z,41.60
2019-04-22T10:54:25.383Z,41.20
2019-04-22T10:56:55.062Z,41.20
2019-04-22T10:59:24.668Z,41.00
2019-04-22T11:01:54.815Z,40.40
2019-04-22T11:04:23.772Z,39.20
2019-04-22T11:06:57.657Z,39.60
2019-04-22T11:09:23.968Z,39.60
2019-04-22T11:12:01.675Z,39.20
2019-04-22T11:14:24.064Z,38.50
2019-04-22T11:16:53.354Z,37.50
2019-04-22T11:19:23.459Z,38.50
2019-04-22T11:22:05.146Z,37.20
2019-04-22T11:24:23.031Z,37.00
2019-04-22T11:26:52.754Z,36.50
2019-04-22T11:29:21.583Z,37.20
2019-04-22T11:31:50.563Z,39.00
2019-04-22T11:34:19.546Z,39.20
2019-04-22T11:36:48.208Z,39.10
2019-04-22T11:39:17.112Z,38.40
2019-04-22T11:41:46.418Z,38.30
2019-04-22T11:44:15.255Z,37.20
2019-04-22T11:46:44.965Z,36.10
2019-04-22T11:49:14.139Z,35.80
2019-04-22T11:51:43.143Z,34.20
2019-04-22T11:54:12.573Z,33.30
2019-04-22T11:56:41.415Z,31.30
2019-04-22T11:59:10.905Z,30.20
2019-04-22T12:01:39.815Z,29.10
2019-04-22T12:04:09.717Z,29.20
2019-04-22T12:06:39.932Z,28.70
2019-04-22T12:09:12.174Z,27.70
2019-04-22T12:11:40.869Z,27.30
2019-04-22T12:14:09.785Z,27.50
2019-04-22T12:16:39.380Z,28.70
2019-04-22T12:19:09.207Z,29.30
2019-04-22T12:21:39.196Z,28.60
2019-04-22T12:24:09.072Z,28.50
2019-04-22T12:26:38.064Z,28.30
2019-04-22T12:29:07.111Z,28.10
2019-04-22T12:31:35.862Z,26.50
2019-04-22T12:34:05.984Z,25.80
2019-04-22T12:36:36.144Z,25.20
2019-04-22T12:39:09.455Z,24.20
2019-04-22T12:41:40.052Z,22.90
2019-04-22T12:44:09.427Z,22.50
2019-04-22T12:46:38.745Z,22.70
2019-04-22T12:49:07.960Z,22.90
2019-04-22T12:51:36.989Z,22.90
2019-04-22T12:54:06.857Z,21.90
2019-04-22T12:56:35.783Z,21.40
2019-04-22T12:59:05.657Z,21.70
2019-04-22T13:01:35.114Z,21.50
2019-04-22T13:04:09.368Z,21.20
2019-04-22T13:06:35.439Z,22.50
2019-04-22T13:09:06.676Z,23.90
2019-04-22T13:11:36.930Z,23.30
2019-04-22T13:14:07.174Z,22.60
2019-04-22T13:16:36.172Z,22.70
2019-04-22T13:19:11.128Z,22.50
2019-04-22T13:21:36.518Z,21.90
2019-04-22T13:24:10.910Z,22.90
2019-04-22T13:26:41.134Z,22.40
2019-04-22T13:29:12.873Z,22.40
2019-04-22T13:31:42.529Z,21.40
2019-04-22T13:34:24.360Z,20.70
2019-04-22T13:36:43.658Z,21.00
2019-04-22T13:39:13.308Z,20.70
2019-04-22T13:41:48.603Z,21.90
2019-04-22T13:44:12.828Z,21.10
2019-04-22T13:47:04.213Z,20.90
2019-04-22T13:49:40.550Z,19.90
2019-04-22T13:52:29.983Z,18.40
2019-04-22T13:56:57.070Z,19.10
2019-04-22T13:59:23.065Z,20.60
2019-04-22T14:01:54.752Z,21.60
2019-04-22T14:04:28.564Z,22.20
2019-04-22T14:06:58.657Z,22.70
2019-04-22T14:09:28.346Z,22.80
2019-04-22T14:12:01.925Z,22.20
2019-04-22T14:14:28.127Z,20.40
2019-04-22T14:16:56.949Z,20.00
2019-04-22T14:19:26.007Z,20.70
2019-04-22T14:21:55.679Z,20.20
2019-04-22T14:24:25.987Z,20.70
2019-04-22T14:27:08.792Z,21.20
2019-04-22T14:29:26.024Z,21.40
2019-04-22T14:34:26.600Z,20.70
2019-04-22T14:36:57.327Z,20.40
2019-04-22T14:39:26.269Z,19.90
2019-04-22T14:42:15.720Z,19.20
2019-04-22T14:44:30.999Z,21.60
2019-04-22T14:47:20.081Z,19.30
2019-04-22T14:49:47.391Z,20.20
2019-04-22T14:52:24.667Z,18.80
2019-04-22T14:54:41.628Z,18.60
2019-04-22T14:56:58.892Z,19.30
2019-04-22T14:59:29.103Z,18.20
2019-04-22T15:01:58.463Z,18.00
2019-04-22T15:04:27.090Z,17.60
2019-04-22T15:06:57.006Z,17.10
2019-04-22T15:09:26.110Z,16.50
2019-04-22T15:12:05.751Z,16.50
2019-04-22T15:14:25.648Z,16.60
2019-04-22T15:17:08.992Z,17.00
2019-04-22T15:19:39.971Z,18.00
2019-04-22T15:22:08.775Z,18.00
2019-04-22T15:24:38.796Z,17.10
2019-04-22T15:27:08.762Z,16.10
2019-04-22T15:29:38.981Z,16.60
2019-04-22T15:32:09.260Z,17.60
2019-04-22T15:34:39.453Z,18.90
2019-04-22T15:37:08.479Z,17.80
2019-04-22T15:39:37.166Z,18.00
2019-04-22T15:42:13.612Z,18.20
2019-04-22T15:44:37.419Z,17.30
2019-04-22T15:47:07.007Z,17.40
2019-04-22T15:49:36.018Z,17.10
2019-04-22T15:52:06.598Z,17.60
2019-04-22T15:54:35.620Z,17.80
2019-04-22T15:57:04.694Z,17.40
2019-04-22T15:59:52.651Z,17.10
2019-04-22T16:02:04.491Z,16.70
2019-04-22T16:04:34.711Z,16.80
2019-04-22T16:07:03.395Z,18.20
2019-04-22T16:09:33.244Z,16.90
2019-04-22T16:12:15.277Z,16.90
2019-04-22T16:14:40.905Z,16.90
2019-04-22T16:17:04.261Z,16.60
2019-04-22T16:19:33.157Z,17.00
2019-04-22T16:22:07.684Z,17.40
2019-04-22T16:24:34.081Z,17.50
2019-04-22T16:27:04.740Z,17.60
2019-04-22T16:29:33.615Z,17.80
2019-04-22T16:32:03.112Z,17.00
2019-04-22T16:34:31.774Z,17.10
2019-04-22T16:37:00.838Z,19.10
2019-04-22T16:39:30.924Z,19.00
2019-04-22T16:42:00.632Z,19.80
2019-04-22T16:44:30.367Z,20.20
2019-04-22T16:46:59.565Z,20.80
2019-04-22T16:49:29.694Z,19.60
2019-04-22T16:51:58.616Z,19.40
2019-04-22T16:54:27.880Z,18.00
2019-04-22T16:56:57.579Z,18.20
2019-04-22T16:59:26.755Z,18.80
2019-04-22T17:01:57.143Z,19.20
2019-04-22T17:04:36.708Z,20.70
2019-04-22T17:07:07.816Z,20.90
2019-04-22T17:09:37.550Z,21.10
2019-04-22T17:12:07.815Z,21.50
2019-04-22T17:14:46.942Z,21.40
2019-04-22T17:17:08.414Z,20.80
2019-04-22T17:19:37.367Z,20.70
2019-04-22T17:22:07.769Z,20.30
2019-04-22T17:24:37.374Z,19.70
2019-04-22T17:27:06.406Z,20.70
2019-04-22T17:29:36.587Z,20.70
2019-04-22T17:32:12.795Z,21.30
2019-04-22T17:34:36.080Z,21.80
2019-04-22T17:37:11.391Z,22.30
2019-04-22T17:39:46.397Z,22.80
2019-04-22T17:42:25.200Z,23.40
2019-04-22T17:45:02.894Z,23.30
2019-04-22T17:47:28.744Z,23.80
2019-04-22T17:50:08.169Z,24.20
2019-04-22T17:52:37.577Z,25.40
2019-04-22T17:55:04.472Z,25.70
2019-04-22T17:57:33.041Z,26.70
2019-04-22T18:00:06.467Z,27.40
2019-04-22T18:02:32.948Z,27.90
2019-04-22T18:04:55.048Z,27.90
2019-04-22T18:07:38.468Z,27.50
2019-04-22T18:12:43.426Z,27.60
2019-04-22T18:15:14.605Z,28.30
2019-04-22T18:17:52.597Z,28.00
2019-04-22T18:20:14.503Z,28.40
2019-04-22T18:22:39.354Z,28.00
2019-04-22T18:25:08.727Z,27.30
2019-04-22T18:30:17.023Z,27.90
2019-04-22T18:32:46.715Z,27.80
2019-04-22T18:35:16.680Z,28.10
2019-04-22T18:37:51.908Z,27.50
2019-04-22T18:40:18.193Z,27.40
2019-04-22T18:42:52.570Z,27.40
2019-04-22T18:45:37.444Z,27.30
2019-04-22T18:47:45.585Z,27.70
2019-04-22T18:50:28.035Z,27.90
2019-04-22T18:52:54.495Z,27.80
2019-04-22T18:55:33.825Z,27.90
2019-04-22T18:58:06.805Z,28.10
2019-04-22T19:00:31.439Z,28.60
2019-04-22T19:03:07.453Z,28.60
2019-04-22T19:05:54.288Z,28.50
2019-04-22T19:08:29.149Z,28.70
2019-04-22T19:11:06.956Z,28.50
2019-04-22T19:16:09.725Z,29.20
2019-04-22T19:18:31.954Z,29.50
2019-04-22T19:20:59.451Z,29.90
2019-04-22T19:23:29.024Z,30.60
2019-04-22T19:25:52.311Z,30.90
2019-04-22T19:28:37.947Z,30.90
2019-04-22T19:31:04.144Z,30.80
2019-04-22T19:33:28.759Z,30.50
2019-04-22T19:36:01.490Z,30.70
2019-04-22T19:38:16.426Z,30.10
2019-04-22T19:43:30.944Z,30.80
2019-04-22T19:46:00.397Z,30.50
2019-04-22T19:48:39.346Z,30.30
2019-04-22T19:51:04.753Z,30.60
2019-04-22T19:53:35.034Z,30.70
2019-04-22T19:55:58.595Z,30.80
2019-04-22T19:58:25.739Z,31.10
2019-04-22T20:01:08.794Z,31.50
2019-04-22T20:04:03.674Z,31.90
2019-04-22T20:06:34.984Z,32.30
2019-04-22T20:09:05.810Z,33.10
2019-04-22T20:11:34.100Z,33.20
2019-04-22T20:14:10.979Z,34.00
2019-04-22T20:16:36.089Z,33.30
2019-04-22T20:19:11.913Z,33.20
2019-04-22T20:21:38.656Z,33.40
2019-04-22T20:23:57.175Z,33.80
2019-04-22T20:26:44.275Z,33.80
2019-04-22T20:29:17.274Z,33.80
2019-04-22T20:31:37.888Z,33.50
2019-04-22T20:34:16.184Z,33.80
2019-04-22T20:39:04.949Z,33.90
2019-04-22T20:41:36.680Z,34.20
2019-04-22T20:44:19.047Z,34.40
2019-04-22T20:46:36.235Z,34.60
2019-04-22T20:49:12.421Z,34.50
2019-04-22T20:54:12.212Z,35.00
2019-04-22T20:56:37.311Z,35.00
2019-04-22T20:59:12.636Z,35.20
2019-04-22T21:01:47.790Z,35.30
2019-04-22T21:03:59.213Z,35.80
2019-04-22T21:06:44.269Z,36.30
2019-04-22T21:09:20.449Z,36.60
2019-04-22T21:11:38.479Z,37.10
2019-04-22T21:14:12.208Z,37.30
2019-04-22T21:16:43.116Z,36.50
2019-04-22T21:19:22.029Z,37.30
2019-04-22T21:21:49.969Z,37.00
2019-04-22T21:24:09.195Z,36.80
2019-04-22T21:26:43.492Z,36.90
2019-04-22T21:29:12.654Z,36.90
2019-04-22T21:31:45.179Z,36.90
2019-04-22T21:34:18.995Z,37.30
2019-04-22T21:37:00.967Z,37.40
2019-04-22T21:39:17.523Z,37.10
2019-04-22T21:41:52.850Z,36.60
2019-04-22T21:44:21.279Z,38.10
2019-04-22T21:46:57.837Z,37.90
2019-04-22T21:49:25.417Z,38.30
2019-04-22T21:51:54.074Z,38.50
2019-04-22T21:54:26.465Z,38.50
2019-04-22T21:57:07.497Z,38.50
2019-04-22T21:59:24.022Z,38.40
2019-04-22T22:01:56.726Z,38.70
2019-04-22T22:04:26.683Z,39.10
2019-04-22T22:06:50.429Z,39.40
2019-04-22T22:09:34.617Z,39.30
2019-04-22T22:11:59.373Z,39.10
2019-04-22T22:14:27.658Z,39.20
2019-04-22T22:16:53.405Z,39.10
2019-04-22T22:19:32.717Z,39.70
2019-04-22T22:22:06.068Z,40.10
2019-04-22T22:24:41.754Z,39.60
2019-04-22T22:27:04.543Z,40.40
2019-04-22T22:29:50.359Z,40.30
2019-04-22T22:32:05.380Z,40.00
2019-04-22T22:34:34.964Z,39.90
2019-04-22T22:36:55.735Z,39.90
2019-04-22T22:39:29.488Z,39.90
2019-04-22T22:41:45.998Z,39.30
2019-04-22T22:44:24.228Z,40.10
2019-04-22T22:47:05.023Z,40.00
2019-04-22T22:49:45.181Z,40.40
2019-04-22T22:52:31.741Z,40.10
2019-04-22T22:54:39.251Z,40.20
2019-04-22T22:57:17.906Z,40.30
2019-04-22T22:59:41.547Z,41.20
2019-04-22T23:02:06.067Z,41.60
2019-04-22T23:04:39.830Z,41.80
2019-04-22T23:07:47.547Z,41.80
2019-04-22T23:10:02.002Z,41.30
2019-04-22T23:15:00.577Z,41.80
2019-04-22T23:17:14.553Z,41.90
2019-04-22T23:19:44.759Z,41.80
2019-04-22T23:22:20.384Z,41.90
2019-04-22T23:25:01.830Z,42.10
2019-04-22T23:27:27.336Z,43.20
2019-04-22T23:30:06.543Z,43.40
2019-04-22T23:32:42.305Z,43.30
2019-04-22T23:35:24.255Z,43.20
2019-04-22T23:37:50.964Z,43.50
2019-04-22T23:40:29.670Z,44.10
2019-04-22T23:43:00.083Z,44.50
2019-04-22T23:45:30.535Z,44.10
2019-04-22T23:47:48.590Z,44.10
2019-04-22T23:50:30.866Z,43.30
2019-04-22T23:53:00.566Z,44.50
2019-04-22T23:55:34.096Z,44.40
2019-04-22T23:58:03.272Z,44.30
